Naturita, Colorado
Current Conditions -  °F | °C
As of 1:35 AM on Friday 31 Oct 2014 (Local Time) from KAIB Reporting Station
Clear Clear  
Wind Chill: 36°   Ceiling: Unl
Heat Index: 41°   Visibility: 10mi
Dew Point: 21°   Wind: 8mph
Humidity: 45%   Direction: 140°SE
Pressure: 30.31"   Gusts: NA
Location:  38.22°N, 108.57°W
Report Text: KAIB 310735Z AUTO 14007KT 10SM CLR 05/M06 A3031 RMK AO2
Loading
Personal Weather Stations






























Interactive Weather Map
Tropical Storm Tracking
New forecast layout! Learn more

10-Day Weather Forecast

Advertisements
Track Severe Weather on mobile